createdAt,value
2018-07-09T00:03:20.597Z,7.93
2018-07-09T00:08:17.852Z,7.00
2018-07-09T00:13:15.080Z,9.60
2018-07-09T00:18:11.846Z,7.73
2018-07-09T00:23:09.075Z,9.50
2018-07-09T00:28:05.855Z,11.27
2018-07-09T00:33:02.927Z,8.37
2018-07-09T00:37:59.677Z,8.33
2018-07-09T00:42:56.868Z,8.40
2018-07-09T00:47:53.771Z,8.80
2018-07-09T00:52:50.866Z,8.13
2018-07-09T00:57:48.428Z,8.17
2018-07-09T01:02:45.419Z,10.27
2018-07-09T01:07:42.217Z,8.33
2018-07-09T01:12:39.340Z,9.73
2018-07-09T01:17:36.201Z,8.37
2018-07-09T01:22:33.250Z,55.30
2018-07-09T01:27:30.416Z,27.50
2018-07-09T01:32:27.154Z,15.83
2018-07-09T01:37:24.239Z,13.07
2018-07-09T01:42:21.038Z,9.77
2018-07-09T01:47:18.281Z,8.97
2018-07-09T01:52:15.089Z,11.73
2018-07-09T01:57:12.412Z,8.93
2018-07-09T02:02:09.681Z,10.63
2018-07-09T02:07:06.593Z,12.87
2018-07-09T02:12:03.716Z,9.53
2018-07-09T02:17:01.066Z,8.67
2018-07-09T02:21:57.805Z,7.97
2018-07-09T02:26:54.786Z,8.30
2018-07-09T02:31:52.057Z,10.47
2018-07-09T02:36:48.891Z,10.07
2018-07-09T02:41:46.019Z,9.37
2018-07-09T02:46:42.802Z,10.77
2018-07-09T02:51:39.907Z,9.13
2018-07-09T02:56:37.489Z,9.07
2018-07-09T03:01:34.466Z,10.47
2018-07-09T03:06:31.289Z,9.17
2018-07-09T03:11:28.199Z,11.80
2018-07-09T03:16:25.344Z,17.23
2018-07-09T03:21:22.175Z,8.37
2018-07-09T03:26:19.267Z,8.87
2018-07-09T03:31:16.333Z,9.00
2018-07-09T03:36:13.304Z,10.60
2018-07-09T03:41:10.070Z,11.93
2018-07-09T03:46:07.220Z,10.37
2018-07-09T03:51:04.271Z,10.70
2018-07-09T03:56:01.908Z,12.77
2018-07-09T04:01:00.969Z,10.50
2018-07-09T04:05:57.760Z,12.13
2018-07-09T04:10:54.768Z,9.80
2018-07-09T04:15:52.083Z,11.77
2018-07-09T04:20:49.274Z,9.53
2018-07-09T04:25:46.197Z,11.23
2018-07-09T04:30:43.275Z,9.67
2018-07-09T04:35:40.085Z,14.03
2018-07-09T04:40:37.285Z,13.27
2018-07-09T04:45:34.081Z,8.70
2018-07-09T04:50:30.945Z,14.57
2018-07-09T04:55:27.792Z,10.80
2018-07-09T05:00:24.823Z,14.37
2018-07-09T05:05:22.017Z,10.50
2018-07-09T05:10:19.165Z,14.87
2018-07-09T05:15:15.952Z,16.40
2018-07-09T05:20:12.990Z,17.33
2018-07-09T05:25:09.720Z,13.13
2018-07-09T05:30:07.012Z,14.27
2018-07-09T05:35:03.988Z,11.20
2018-07-09T05:40:00.830Z,12.33
2018-07-09T05:44:58.227Z,12.70
2018-07-09T05:49:55.169Z,14.23
2018-07-09T05:54:52.227Z,12.40
2018-07-09T05:59:49.186Z,13.73
2018-07-09T06:04:45.952Z,14.07
2018-07-09T06:09:43.029Z,13.60
2018-07-09T06:14:39.827Z,15.50
2018-07-09T06:19:37.056Z,13.13
2018-07-09T06:24:33.866Z,14.78
2018-07-09T06:29:30.954Z,9.80
2018-07-09T06:34:28.045Z,13.98
2018-07-09T06:39:24.889Z,16.05
2018-07-09T06:44:21.965Z,10.53
2018-07-09T06:49:19.132Z,14.43
2018-07-09T06:54:16.137Z,8.23
2018-07-09T06:59:13.355Z,15.40
2018-07-09T07:04:10.399Z,12.55
2018-07-09T07:09:07.515Z,10.48
2018-07-09T07:14:04.315Z,14.45
2018-07-09T07:19:02.863Z,9.88
2018-07-09T07:23:59.612Z,15.15
2018-07-09T07:28:57.014Z,10.90
2018-07-09T07:33:53.857Z,10.60
2018-07-09T07:38:51.067Z,9.10
2018-07-09T07:43:47.932Z,10.85
2018-07-09T07:48:45.381Z,13.43
2018-07-09T07:53:42.147Z,10.58
2018-07-09T07:58:38.996Z,10.30
2018-07-09T08:03:35.559Z,12.98
2018-07-09T08:08:32.875Z,7.35
2018-07-09T08:13:30.026Z,10.45
2018-07-09T08:18:27.311Z,8.55
2018-07-09T08:40:06.384Z,9.55
2018-07-09T08:45:03.332Z,11.03
2018-07-09T08:50:00.313Z,14.18
2018-07-09T08:54:57.247Z,9.90
2018-07-09T08:59:54.182Z,14.95
2018-07-09T09:04:51.494Z,11.38
2018-07-09T09:09:48.236Z,17.50
2018-07-09T09:14:45.445Z,13.98
2018-07-09T09:19:42.390Z,11.78
2018-07-09T09:24:39.400Z,22.37
2018-07-09T09:29:36.935Z,16.10
2018-07-09T09:34:33.758Z,11.70
2018-07-09T09:39:30.740Z,17.02
2018-07-09T09:44:27.661Z,12.88
2018-07-09T09:49:24.784Z,10.55
2018-07-09T09:54:21.811Z,12.18
2018-07-09T09:59:18.814Z,9.28
2018-07-09T10:04:15.710Z,12.35
2018-07-09T10:09:12.743Z,9.10
2018-07-09T10:14:09.504Z,7.30
2018-07-09T10:19:06.567Z,9.20
2018-07-09T10:24:03.623Z,11.28
2018-07-09T10:29:00.457Z,10.95
2018-07-09T10:33:58.233Z,9.05
2018-07-09T10:38:55.072Z,6.17
2018-07-09T10:43:52.174Z,7.45
2018-07-09T10:48:49.154Z,6.40
2018-07-09T10:53:46.222Z,6.97
2018-07-09T10:58:43.375Z,7.47
2018-07-09T11:03:40.113Z,10.20
2018-07-09T11:08:37.404Z,6.65
2018-07-09T11:13:34.414Z,7.05
2018-07-09T11:18:31.633Z,8.98
2018-07-09T11:23:28.381Z,7.08
2018-07-09T11:28:25.442Z,5.85
2018-07-09T11:33:22.278Z,7.25
2018-07-09T11:38:19.702Z,8.15
2018-07-09T11:43:16.468Z,6.45
2018-07-09T11:48:13.512Z,6.87
2018-07-09T11:53:10.315Z,10.93
2018-07-09T11:58:07.122Z,6.90
2018-07-09T12:03:04.399Z,5.08
2018-07-09T12:08:01.501Z,5.87
2018-07-09T12:12:58.736Z,6.33
2018-07-09T12:17:55.475Z,8.00
2018-07-09T12:22:52.966Z,7.47
2018-07-09T12:27:49.934Z,6.40
2018-07-09T12:32:46.791Z,10.05
2018-07-09T12:37:43.690Z,6.55
2018-07-09T12:42:40.479Z,9.78
2018-07-09T12:47:37.570Z,9.28
2018-07-09T12:52:34.410Z,6.47
2018-07-09T12:57:31.406Z,10.15
2018-07-09T13:02:28.214Z,7.72
2018-07-09T13:07:25.331Z,8.98
2018-07-09T13:12:27.817Z,12.65
2018-07-09T13:17:24.743Z,12.15
2018-07-09T13:22:21.749Z,7.17
2018-07-09T13:27:18.905Z,9.45
2018-07-09T13:32:15.687Z,13.90
2018-07-09T13:37:13.378Z,6.75
2018-07-09T13:42:10.180Z,9.00
2018-07-09T13:47:07.254Z,8.03
2018-07-09T13:52:04.033Z,8.73
2018-07-09T13:57:01.490Z,4.85
2018-07-09T14:01:58.553Z,6.83
2018-07-09T14:06:55.389Z,4.75
2018-07-09T14:11:52.581Z,6.08
2018-07-09T14:16:49.611Z,4.87
2018-07-09T14:21:46.698Z,6.78
2018-07-09T14:26:43.810Z,12.35
2018-07-09T14:31:40.943Z,6.53
2018-07-09T14:36:37.978Z,5.70
2018-07-09T14:41:35.692Z,5.12
2018-07-09T14:46:32.609Z,5.55
2018-07-09T14:51:29.759Z,4.75
2018-07-09T14:56:26.488Z,8.50
2018-07-09T15:01:23.650Z,8.03
2018-07-09T15:06:20.715Z,6.83
2018-07-09T15:11:17.563Z,5.58
2018-07-09T15:16:14.631Z,10.72
2018-07-09T15:21:12.076Z,8.45
2018-07-09T15:26:08.815Z,10.35
2018-07-09T15:31:06.221Z,8.75
2018-07-09T15:36:03.041Z,9.18
2018-07-09T15:41:05.350Z,5.65
2018-07-09T15:46:03.754Z,4.62
2018-07-09T15:51:01.667Z,5.78
2018-07-09T15:55:58.412Z,6.97
2018-07-09T16:00:55.320Z,5.53
2018-07-09T16:05:52.433Z,6.05
2018-07-09T16:10:49.257Z,4.50
2018-07-09T16:15:46.432Z,6.42
2018-07-09T16:20:43.828Z,4.50
2018-07-09T16:25:40.636Z,5.40
2018-07-09T16:30:37.637Z,8.95
2018-07-09T16:35:34.544Z,3.55
2018-07-09T16:40:31.966Z,4.45
2018-07-09T16:45:29.096Z,5.40
2018-07-09T16:50:26.311Z,7.83
2018-07-09T16:55:23.093Z,4.72
2018-07-09T17:00:20.154Z,3.30
2018-07-09T17:05:17.199Z,4.67
2018-07-09T17:10:14.273Z,8.13
2018-07-09T17:15:11.327Z,1.85
2018-07-09T17:20:08.800Z,4.08
2018-07-09T17:25:06.064Z,7.20
2018-07-09T17:30:03.235Z,6.15
2018-07-09T17:35:00.053Z,5.30
2018-07-09T17:39:57.169Z,4.47
2018-07-09T17:44:54.079Z,4.90
2018-07-09T17:49:51.305Z,4.25
2018-07-09T17:54:48.367Z,2.85
2018-07-09T17:59:45.424Z,2.20
2018-07-09T18:04:42.173Z,10.15
2018-07-09T18:09:39.214Z,5.55
2018-07-09T18:14:36.309Z,6.45
2018-07-09T18:19:33.716Z,3.42
2018-07-09T18:24:31.222Z,5.75
2018-07-09T18:29:28.224Z,3.58
2018-07-09T18:34:25.019Z,6.65
2018-07-09T18:39:22.148Z,6.05
2018-07-09T18:44:19.516Z,7.80
2018-07-09T18:49:15.936Z,2.77
2018-07-09T18:54:13.037Z,4.97
2018-07-09T18:59:09.859Z,3.98
2018-07-09T19:04:06.961Z,4.37
2018-07-09T19:09:04.458Z,2.22
2018-07-09T19:14:01.824Z,5.22
2018-07-09T19:19:04.487Z,1.80
2018-07-09T19:24:01.950Z,3.52
2018-07-09T19:28:58.342Z,2.35
2018-07-09T19:33:54.615Z,4.80
2018-07-09T19:38:51.234Z,4.00
2018-07-09T19:43:47.567Z,5.20
2018-07-09T19:48:43.843Z,2.87
2018-07-09T19:53:40.889Z,5.90
2018-07-09T19:58:37.071Z,4.75
2018-07-09T20:03:33.465Z,2.25
2018-07-09T20:08:35.663Z,5.30
2018-07-09T20:13:35.499Z,3.70
2018-07-09T20:18:32.071Z,5.03
2018-07-09T20:23:28.345Z,3.87
2018-07-09T20:28:25.253Z,2.42
2018-07-09T20:33:21.456Z,3.55
2018-07-09T20:38:17.879Z,5.03
2018-07-09T20:43:14.551Z,4.15
2018-07-09T20:48:11.243Z,2.83
2018-07-09T20:53:07.694Z,4.15
2018-07-09T20:58:04.166Z,5.62
2018-07-09T21:03:00.357Z,4.08
2018-07-09T21:07:56.943Z,2.55
2018-07-09T21:12:55.151Z,3.87
2018-07-09T21:17:51.703Z,4.17
2018-07-09T21:22:48.311Z,3.45
2018-07-09T21:27:45.317Z,3.05
2018-07-09T21:32:41.543Z,4.62
2018-07-09T21:37:38.079Z,2.60
2018-07-09T21:42:34.236Z,2.47
2018-07-09T21:47:30.919Z,4.22
2018-07-09T21:52:27.127Z,2.40
2018-07-09T21:57:23.718Z,2.37
2018-07-09T22:02:20.450Z,3.08
2018-07-09T22:07:17.009Z,3.67
2018-07-09T22:12:13.517Z,6.25
2018-07-09T22:17:09.712Z,2.65
2018-07-09T22:22:06.160Z,3.67
2018-07-09T22:27:02.886Z,2.90
2018-07-09T22:31:59.985Z,3.20
2018-07-09T22:36:56.949Z,3.20
2018-07-09T22:41:53.891Z,4.30
2018-07-09T22:46:50.731Z,4.23
2018-07-09T22:51:47.834Z,4.17
2018-07-09T22:56:44.592Z,4.72
2018-07-09T23:01:41.667Z,4.90
2018-07-09T23:06:38.570Z,3.03
2018-07-09T23:13:47.898Z,3.03
2018-07-09T23:19:00.617Z,3.60
2018-07-09T23:23:56.806Z,7.47
2018-07-09T23:28:54.294Z,3.73
2018-07-09T23:33:50.653Z,4.23
2018-07-09T23:38:47.133Z,3.53
2018-07-09T23:43:43.327Z,3.03
2018-07-09T23:48:39.834Z,3.13
2018-07-09T23:53:36.055Z,4.10
2018-07-09T23:58:40.389Z,3.20
